sensor_id;sensor_type;location;lat;lon;timestamp;temperature;humidity
28193;DHT22;15473;50.840;3.396;2023-02-01T00:01:07;6.20;99.90
28193;DHT22;15473;50.840;3.396;2023-02-01T00:04:00;6.20;99.90
28193;DHT22;15473;50.840;3.396;2023-02-01T00:06:52;6.20;99.90
28193;DHT22;15473;50.840;3.396;2023-02-01T00:09:45;6.20;99.90
28193;DHT22;15473;50.840;3.396;2023-02-01T00:12:31;6.20;99.90
28193;DHT22;15473;50.840;3.396;2023-02-01T00:15:25;6.20;99.90
28193;DHT22;15473;50.840;3.396;2023-02-01T00:18:17;6.20;99.90
28193;DHT22;15473;50.840;3.396;2023-02-01T00:21:03;6.20;99.90
28193;DHT22;15473;50.840;3.396;2023-02-01T00:23:50;6.20;99.90
28193;DHT22;15473;50.840;3.396;2023-02-01T00:26:41;6.20;99.90
28193;DHT22;15473;50.840;3.396;2023-02-01T00:29:27;6.20;99.90
28193;DHT22;15473;50.840;3.396;2023-02-01T00:32:13;6.20;99.90
28193;DHT22;15473;50.840;3.396;2023-02-01T00:34:59;6.10;99.90
28193;DHT22;15473;50.840;3.396;2023-02-01T00:37:51;6.10;99.90
28193;DHT22;15473;50.840;3.396;2023-02-01T00:40:42;6.10;99.90
28193;DHT22;15473;50.840;3.396;2023-02-01T00:43:30;6.10;99.90
28193;DHT22;15473;50.840;3.396;2023-02-01T00:46:23;6.10;99.90
28193;DHT22;15473;50.840;3.396;2023-02-01T00:49:08;6.10;99.90
28193;DHT22;15473;50.840;3.396;2023-02-01T00:51:54;6.00;99.90
28193;DHT22;15473;50.840;3.396;2023-02-01T00:54:40;6.00;99.90
28193;DHT22;15473;50.840;3.396;2023-02-01T00:57:26;6.00;99.90
28193;DHT22;15473;50.840;3.396;2023-02-01T01:00:15;6.00;99.90
28193;DHT22;15473;50.840;3.396;2023-02-01T01:03:00;5.90;99.90
28193;DHT22;15473;50.840;3.396;2023-02-01T01:05:56;5.90;99.90
28193;DHT22;15473;50.840;3.396;2023-02-01T01:08:53;5.80;99.90
28193;DHT22;15473;50.840;3.396;2023-02-01T01:11:45;5.70;99.90
28193;DHT22;15473;50.840;3.396;2023-02-01T01:14:31;5.60;99.90
28193;DHT22;15473;50.840;3.396;2023-02-01T01:17:30;5.60;99.90
28193;DHT22;15473;50.840;3.396;2023-02-01T01:20:16;5.50;99.90
28193;DHT22;15473;50.840;3.396;2023-02-01T01:23:08;5.40;99.90
28193;DHT22;15473;50.840;3.396;2023-02-01T01:25:54;5.40;99.90
28193;DHT22;15473;50.840;3.396;2023-02-01T01:28:47;5.30;99.90
28193;DHT22;15473;50.840;3.396;2023-02-01T01:31:33;5.30;99.90
28193;DHT22;15473;50.840;3.396;2023-02-01T01:34:25;5.20;99.90
28193;DHT22;15473;50.840;3.396;2023-02-01T01:37:11;5.30;99.90
28193;DHT22;15473;50.840;3.396;2023-02-01T01:39:56;5.30;99.90
28193;DHT22;15473;50.840;3.396;2023-02-01T01:42:48;5.30;99.90
28193;DHT22;15473;50.840;3.396;2023-02-01T01:45:39;5.40;99.90
28193;DHT22;15473;50.840;3.396;2023-02-01T01:48:31;5.40;99.90
28193;DHT22;15473;50.840;3.396;2023-02-01T01:51:26;5.40;99.90
28193;DHT22;15473;50.840;3.396;2023-02-01T01:54:14;5.50;99.90
28193;DHT22;15473;50.840;3.396;2023-02-01T01:57:09;5.50;99.90
28193;DHT22;15473;50.840;3.396;2023-02-01T01:59:57;5.50;99.90
28193;DHT22;15473;50.840;3.396;2023-02-01T02:02:47;5.50;99.90
28193;DHT22;15473;50.840;3.396;2023-02-01T02:05:34;5.50;99.90
28193;DHT22;15473;50.840;3.396;2023-02-01T02:08:20;5.50;99.90
28193;DHT22;15473;50.840;3.396;2023-02-01T02:11:07;5.50;99.90
28193;DHT22;15473;50.840;3.396;2023-02-01T02:14:00;5.50;99.90
28193;DHT22;15473;50.840;3.396;2023-02-01T02:16:58;5.50;99.90
28193;DHT22;15473;50.840;3.396;2023-02-01T02:23:01;5.40;99.90
28193;DHT22;15473;50.840;3.396;2023-02-01T02:32:09;5.40;99.90
28193;DHT22;15473;50.840;3.396;2023-02-01T02:34:55;5.30;99.90
28193;DHT22;15473;50.840;3.396;2023-02-01T02:37:53;5.30;99.90
28193;DHT22;15473;50.840;3.396;2023-02-01T02:43:50;5.30;99.90
28193;DHT22;15473;50.840;3.396;2023-02-01T02:47:02;5.20;99.90
28193;DHT22;15473;50.840;3.396;2023-02-01T02:50:15;5.20;99.90
28193;DHT22;15473;50.840;3.396;2023-02-01T02:53:21;5.20;99.90
28193;DHT22;15473;50.840;3.396;2023-02-01T02:56:28;5.20;99.90
28193;DHT22;15473;50.840;3.396;2023-02-01T02:59:37;5.10;99.90
28193;DHT22;15473;50.840;3.396;2023-02-01T03:02:43;5.10;99.90
28193;DHT22;15473;50.840;3.396;2023-02-01T03:05:48;5.10;99.90
28193;DHT22;15473;50.840;3.396;2023-02-01T03:08:43;5.00;99.90
28193;DHT22;15473;50.840;3.396;2023-02-01T03:11:36;5.00;99.90
28193;DHT22;15473;50.840;3.396;2023-02-01T03:14:26;5.00;99.90
28193;DHT22;15473;50.840;3.396;2023-02-01T03:17:15;5.00;99.90
28193;DHT22;15473;50.840;3.396;2023-02-01T03:20:07;4.90;99.90
28193;DHT22;15473;50.840;3.396;2023-02-01T03:22:55;4.90;99.90
28193;DHT22;15473;50.840;3.396;2023-02-01T03:25:42;4.90;99.90
28193;DHT22;15473;50.840;3.396;2023-02-01T03:28:29;4.80;99.90
28193;DHT22;15473;50.840;3.396;2023-02-01T03:31:21;4.80;99.90
28193;DHT22;15473;50.840;3.396;2023-02-01T03:34:14;4.80;99.90
28193;DHT22;15473;50.840;3.396;2023-02-01T03:37:06;4.80;99.90
28193;DHT22;15473;50.840;3.396;2023-02-01T03:39:56;4.80;99.90
28193;DHT22;15473;50.840;3.396;2023-02-01T03:42:42;4.80;99.90
28193;DHT22;15473;50.840;3.396;2023-02-01T03:45:28;4.80;99.90
28193;DHT22;15473;50.840;3.396;2023-02-01T03:48:21;4.70;99.90
28193;DHT22;15473;50.840;3.396;2023-02-01T03:51:09;4.70;99.90
28193;DHT22;15473;50.840;3.396;2023-02-01T03:54:02;4.70;99.90
28193;DHT22;15473;50.840;3.396;2023-02-01T03:56:52;4.70;99.90
28193;DHT22;15473;50.840;3.396;2023-02-01T03:59:46;4.70;99.90
28193;DHT22;15473;50.840;3.396;2023-02-01T04:02:32;4.70;99.90
28193;DHT22;15473;50.840;3.396;2023-02-01T04:05:17;4.60;99.90
28193;DHT22;15473;50.840;3.396;2023-02-01T04:08:05;4.60;99.90
28193;DHT22;15473;50.840;3.396;2023-02-01T04:10:54;4.60;99.90
28193;DHT22;15473;50.840;3.396;2023-02-01T04:13:46;4.60;99.90
28193;DHT22;15473;50.840;3.396;2023-02-01T04:16:32;4.50;99.90
28193;DHT22;15473;50.840;3.396;2023-02-01T04:19:17;4.50;99.90
28193;DHT22;15473;50.840;3.396;2023-02-01T04:22:10;4.50;99.90
28193;DHT22;15473;50.840;3.396;2023-02-01T04:24:56;4.50;99.90
28193;DHT22;15473;50.840;3.396;2023-02-01T04:27:49;4.40;99.90
28193;DHT22;15473;50.840;3.396;2023-02-01T04:30:42;4.40;99.90
28193;DHT22;15473;50.840;3.396;2023-02-01T04:33:27;4.40;99.90
28193;DHT22;15473;50.840;3.396;2023-02-01T04:36:14;4.40;99.90
28193;DHT22;15473;50.840;3.396;2023-02-01T04:39:03;4.40;99.90
28193;DHT22;15473;50.840;3.396;2023-02-01T04:41:49;4.40;99.90
28193;DHT22;15473;50.840;3.396;2023-02-01T04:44:47;4.30;99.90
28193;DHT22;15473;50.840;3.396;2023-02-01T04:47:33;4.30;99.90
28193;DHT22;15473;50.840;3.396;2023-02-01T04:50:20;4.30;99.90
28193;DHT22;15473;50.840;3.396;2023-02-01T04:53:09;4.30;99.90
28193;DHT22;15473;50.840;3.396;2023-02-01T04:55:55;4.30;99.90
28193;DHT22;15473;50.840;3.396;2023-02-01T04:58:41;4.30;99.90
28193;DHT22;15473;50.840;3.396;2023-02-01T05:01:33;4.30;99.90
28193;DHT22;15473;50.840;3.396;2023-02-01T05:04:18;4.30;99.90
28193;DHT22;15473;50.840;3.396;2023-02-01T05:07:10;4.30;99.90
28193;DHT22;15473;50.840;3.396;2023-02-01T05:09:56;4.30;99.90
28193;DHT22;15473;50.840;3.396;2023-02-01T05:12:43;4.30;99.90
28193;DHT22;15473;50.840;3.396;2023-02-01T05:15:46;4.20;99.90
28193;DHT22;15473;50.840;3.396;2023-02-01T05:18:39;4.20;99.90
28193;DHT22;15473;50.840;3.396;2023-02-01T05:21:25;4.20;99.90
28193;DHT22;15473;50.840;3.396;2023-02-01T05:24:23;4.20;99.90
28193;DHT22;15473;50.840;3.396;2023-02-01T05:27:10;4.10;99.90
28193;DHT22;15473;50.840;3.396;2023-02-01T05:29:56;4.20;99.90
28193;DHT22;15473;50.840;3.396;2023-02-01T05:32:51;4.10;99.90
28193;DHT22;15473;50.840;3.396;2023-02-01T05:35:37;4.10;99.90
28193;DHT22;15473;50.840;3.396;2023-02-01T05:38:23;4.20;99.90
28193;DHT22;15473;50.840;3.396;2023-02-01T05:41:15;4.20;99.90
28193;DHT22;15473;50.840;3.396;2023-02-01T05:44:04;4.20;99.90
28193;DHT22;15473;50.840;3.396;2023-02-01T05:46:58;4.20;99.90
28193;DHT22;15473;50.840;3.396;2023-02-01T05:49:47;4.20;99.90
28193;DHT22;15473;50.840;3.396;2023-02-01T05:52:33;4.10;99.90
28193;DHT22;15473;50.840;3.396;2023-02-01T05:55:19;4.10;99.90
28193;DHT22;15473;50.840;3.396;2023-02-01T05:58:11;4.10;99.90
28193;DHT22;15473;50.840;3.396;2023-02-01T06:01:03;4.10;99.90
28193;DHT22;15473;50.840;3.396;2023-02-01T06:03:55;4.00;99.90
28193;DHT22;15473;50.840;3.396;2023-02-01T06:06:42;4.00;99.90
28193;DHT22;15473;50.840;3.396;2023-02-01T06:09:34;4.00;99.90
28193;DHT22;15473;50.840;3.396;2023-02-01T06:12:20;4.00;99.90
28193;DHT22;15473;50.840;3.396;2023-02-01T06:15:08;4.00;99.90
28193;DHT22;15473;50.840;3.396;2023-02-01T06:17:53;3.90;99.90
28193;DHT22;15473;50.840;3.396;2023-02-01T06:20:39;3.90;99.90
28193;DHT22;15473;50.840;3.396;2023-02-01T06:23:34;3.90;99.90
28193;DHT22;15473;50.840;3.396;2023-02-01T06:26:26;3.90;99.90
28193;DHT22;15473;50.840;3.396;2023-02-01T06:29:19;3.90;99.90
28193;DHT22;15473;50.840;3.396;2023-02-01T06:32:04;3.80;99.90
28193;DHT22;15473;50.840;3.396;2023-02-01T06:34:57;3.80;99.90
28193;DHT22;15473;50.840;3.396;2023-02-01T06:37:44;3.80;99.90
28193;DHT22;15473;50.840;3.396;2023-02-01T06:40:30;3.80;99.90
28193;DHT22;15473;50.840;3.396;2023-02-01T06:43:29;3.80;99.90
28193;DHT22;15473;50.840;3.396;2023-02-01T06:46:14;3.80;99.90
28193;DHT22;15473;50.840;3.396;2023-02-01T06:49:03;3.80;99.90
28193;DHT22;15473;50.840;3.396;2023-02-01T06:51:53;3.80;99.90
28193;DHT22;15473;50.840;3.396;2023-02-01T06:54:45;3.80;99.90
28193;DHT22;15473;50.840;3.396;2023-02-01T06:57:31;3.80;99.90
28193;DHT22;15473;50.840;3.396;2023-02-01T07:00:21;3.80;99.90
28193;DHT22;15473;50.840;3.396;2023-02-01T07:03:08;3.80;99.90
28193;DHT22;15473;50.840;3.396;2023-02-01T07:05:59;3.80;99.90
28193;DHT22;15473;50.840;3.396;2023-02-01T07:08:44;3.80;99.90
28193;DHT22;15473;50.840;3.396;2023-02-01T07:11:36;3.80;99.90
28193;DHT22;15473;50.840;3.396;2023-02-01T07:14:30;3.80;99.90
28193;DHT22;15473;50.840;3.396;2023-02-01T07:17:20;3.80;99.90
28193;DHT22;15473;50.840;3.396;2023-02-01T07:20:10;3.80;99.90
28193;DHT22;15473;50.840;3.396;2023-02-01T07:26:07;3.80;99.90
28193;DHT22;15473;50.840;3.396;2023-02-01T07:28:53;3.80;99.90
28193;DHT22;15473;50.840;3.396;2023-02-01T07:31:40;3.80;99.90
28193;DHT22;15473;50.840;3.396;2023-02-01T07:34:26;3.80;99.90
28193;DHT22;15473;50.840;3.396;2023-02-01T07:37:17;3.80;99.90
28193;DHT22;15473;50.840;3.396;2023-02-01T07:40:10;3.90;99.90
28193;DHT22;15473;50.840;3.396;2023-02-01T07:42:56;3.90;99.90
28193;DHT22;15473;50.840;3.396;2023-02-01T07:45:42;4.00;99.90
28193;DHT22;15473;50.840;3.396;2023-02-01T07:48:28;4.10;99.90
28193;DHT22;15473;50.840;3.396;2023-02-01T07:51:15;4.20;99.90
28193;DHT22;15473;50.840;3.396;2023-02-01T07:54:02;4.30;99.90
28193;DHT22;15473;50.840;3.396;2023-02-01T07:56:48;4.40;99.90
28193;DHT22;15473;50.840;3.396;2023-02-01T07:59:41;4.50;99.90
28193;DHT22;15473;50.840;3.396;2023-02-01T08:02:28;4.60;99.90
28193;DHT22;15473;50.840;3.396;2023-02-01T08:05:14;4.60;99.90
28193;DHT22;15473;50.840;3.396;2023-02-01T08:08:06;4.70;99.90
28193;DHT22;15473;50.840;3.396;2023-02-01T08:10:59;4.80;99.90
28193;DHT22;15473;50.840;3.396;2023-02-01T08:13:51;4.80;99.90
28193;DHT22;15473;50.840;3.396;2023-02-01T08:16:37;4.90;99.90
28193;DHT22;15473;50.840;3.396;2023-02-01T08:19:29;5.00;99.90
28193;DHT22;15473;50.840;3.396;2023-02-01T08:22:15;5.10;99.90
28193;DHT22;15473;50.840;3.396;2023-02-01T08:25:01;5.20;99.90
28193;DHT22;15473;50.840;3.396;2023-02-01T08:27:46;5.30;99.90
28193;DHT22;15473;50.840;3.396;2023-02-01T08:30:39;5.40;99.90
28193;DHT22;15473;50.840;3.396;2023-02-01T08:33:30;5.50;99.90
28193;DHT22;15473;50.840;3.396;2023-02-01T08:36:17;5.70;99.90
28193;DHT22;15473;50.840;3.396;2023-02-01T08:39:03;5.80;99.90
28193;DHT22;15473;50.840;3.396;2023-02-01T08:41:57;5.90;99.90
28193;DHT22;15473;50.840;3.396;2023-02-01T08:45:07;6.00;99.90
28193;DHT22;15473;50.840;3.396;2023-02-01T08:47:53;6.20;99.90
28193;DHT22;15473;50.840;3.396;2023-02-01T08:50:40;6.30;99.90
28193;DHT22;15473;50.840;3.396;2023-02-01T08:53:26;6.50;99.90
28193;DHT22;15473;50.840;3.396;2023-02-01T08:56:12;6.60;99.90
28193;DHT22;15473;50.840;3.396;2023-02-01T08:59:05;6.70;99.90
28193;DHT22;15473;50.840;3.396;2023-02-01T09:01:52;6.80;99.90
28193;DHT22;15473;50.840;3.396;2023-02-01T09:04:37;7.00;99.90
28193;DHT22;15473;50.840;3.396;2023-02-01T09:07:25;7.10;99.90
28193;DHT22;15473;50.840;3.396;2023-02-01T09:10:17;7.20;99.90
28193;DHT22;15473;50.840;3.396;2023-02-01T09:13:09;7.30;99.90
28193;DHT22;15473;50.840;3.396;2023-02-01T09:15:55;7.50;99.90
28193;DHT22;15473;50.840;3.396;2023-02-01T09:18:43;7.60;99.90
28193;DHT22;15473;50.840;3.396;2023-02-01T09:21:29;7.60;99.90
28193;DHT22;15473;50.840;3.396;2023-02-01T09:24:16;7.70;99.90
28193;DHT22;15473;50.840;3.396;2023-02-01T09:27:15;7.80;99.90
28193;DHT22;15473;50.840;3.396;2023-02-01T09:30:08;7.90;99.90
28193;DHT22;15473;50.840;3.396;2023-02-01T09:32:54;7.90;99.90
28193;DHT22;15473;50.840;3.396;2023-02-01T09:35:41;7.90;99.90
28193;DHT22;15473;50.840;3.396;2023-02-01T09:38:28;7.90;99.90
28193;DHT22;15473;50.840;3.396;2023-02-01T09:41:22;7.90;99.90
28193;DHT22;15473;50.840;3.396;2023-02-01T09:47:04;7.80;99.90
28193;DHT22;15473;50.840;3.396;2023-02-01T09:50:00;7.80;99.90
28193;DHT22;15473;50.840;3.396;2023-02-01T09:53:27;7.90;99.90
28193;DHT22;15473;50.840;3.396;2023-02-01T09:56:10;8.10;99.90
28193;DHT22;15473;50.840;3.396;2023-02-01T09:58:55;8.40;99.90
28193;DHT22;15473;50.840;3.396;2023-02-01T10:01:42;8.60;99.90
28193;DHT22;15473;50.840;3.396;2023-02-01T10:04:30;8.80;99.90
28193;DHT22;15473;50.840;3.396;2023-02-01T10:10:15;9.20;99.90
28193;DHT22;15473;50.840;3.396;2023-02-01T10:15:58;9.40;99.90
28193;DHT22;15473;50.840;3.396;2023-02-01T10:18:54;9.60;99.90
28193;DHT22;15473;50.840;3.396;2023-02-01T10:21:52;9.90;99.90
28193;DHT22;15473;50.840;3.396;2023-02-01T10:24:49;10.20;99.90
28193;DHT22;15473;50.840;3.396;2023-02-01T10:27:38;10.50;99.90
28193;DHT22;15473;50.840;3.396;2023-02-01T10:30:31;10.70;99.90
28193;DHT22;15473;50.840;3.396;2023-02-01T10:33:27;10.80;99.90
28193;DHT22;15473;50.840;3.396;2023-02-01T10:36:16;11.00;99.90
28193;DHT22;15473;50.840;3.396;2023-02-01T10:39:05;11.00;99.90
28193;DHT22;15473;50.840;3.396;2023-02-01T10:41:52;11.20;99.90
28193;DHT22;15473;50.840;3.396;2023-02-01T10:44:45;11.20;99.90
28193;DHT22;15473;50.840;3.396;2023-02-01T10:47:32;11.30;99.90
28193;DHT22;15473;50.840;3.396;2023-02-01T10:53:31;11.50;99.90
28193;DHT22;15473;50.840;3.396;2023-02-01T10:56:21;11.60;99.90
28193;DHT22;15473;50.840;3.396;2023-02-01T10:59:06;11.80;99.90
28193;DHT22;15473;50.840;3.396;2023-02-01T11:01:57;11.90;99.90
28193;DHT22;15473;50.840;3.396;2023-02-01T11:04:38;12.10;99.90
28193;DHT22;15473;50.840;3.396;2023-02-01T11:07:28;12.20;99.90
28193;DHT22;15473;50.840;3.396;2023-02-01T11:10:34;12.40;99.90
28193;DHT22;15473;50.840;3.396;2023-02-01T11:13:20;12.50;99.90
28193;DHT22;15473;50.840;3.396;2023-02-01T11:16:13;12.60;99.90
28193;DHT22;15473;50.840;3.396;2023-02-01T11:19:02;12.90;99.90
28193;DHT22;15473;50.840;3.396;2023-02-01T11:21:51;14.20;99.90
28193;DHT22;15473;50.840;3.396;2023-02-01T11:24:37;17.40;99.90
28193;DHT22;15473;50.840;3.396;2023-02-01T11:27:30;21.00;99.90
28193;DHT22;15473;50.840;3.396;2023-02-01T11:33:18;20.90;99.90
28193;DHT22;15473;50.840;3.396;2023-02-01T11:36:23;21.20;99.90
28193;DHT22;15473;50.840;3.396;2023-02-01T11:39:17;22.10;99.90
28193;DHT22;15473;50.840;3.396;2023-02-01T11:42:15;22.80;99.90
28193;DHT22;15473;50.840;3.396;2023-02-01T11:45:19;22.80;99.90
28193;DHT22;15473;50.840;3.396;2023-02-01T11:48:09;23.30;99.90
28193;DHT22;15473;50.840;3.396;2023-02-01T11:51:13;23.70;99.90
28193;DHT22;15473;50.840;3.396;2023-02-01T12:12:08;28.00;99.90
28193;DHT22;15473;50.840;3.396;2023-02-01T12:14:36;28.20;99.90
28193;DHT22;15473;50.840;3.396;2023-02-01T12:17:42;27.60;99.90
28193;DHT22;15473;50.840;3.396;2023-02-01T12:20:47;27.40;99.90
28193;DHT22;15473;50.840;3.396;2023-02-01T12:23:32;27.70;99.90
28193;DHT22;15473;50.840;3.396;2023-02-01T12:26:32;27.70;99.90
28193;DHT22;15473;50.840;3.396;2023-02-01T12:41:06;21.40;99.90
28193;DHT22;15473;50.840;3.396;2023-02-01T12:47:14;20.80;99.90
28193;DHT22;15473;50.840;3.396;2023-02-01T12:50:05;20.30;99.90
28193;DHT22;15473;50.840;3.396;2023-02-01T12:53:07;19.90;99.90
28193;DHT22;15473;50.840;3.396;2023-02-01T12:55:57;19.10;99.90
28193;DHT22;15473;50.840;3.396;2023-02-01T12:58:52;18.10;99.90
28193;DHT22;15473;50.840;3.396;2023-02-01T13:01:41;17.20;99.90
28193;DHT22;15473;50.840;3.396;2023-02-01T13:04:29;16.70;99.90
28193;DHT22;15473;50.840;3.396;2023-02-01T13:07:51;16.40;99.90
28193;DHT22;15473;50.840;3.396;2023-02-01T13:13:18;16.20;99.90
28193;DHT22;15473;50.840;3.396;2023-02-01T13:16:17;16.20;99.90
28193;DHT22;15473;50.840;3.396;2023-02-01T13:19:17;16.30;99.90
28193;DHT22;15473;50.840;3.396;2023-02-01T13:22:03;16.60;99.90
28193;DHT22;15473;50.840;3.396;2023-02-01T13:25:05;16.80;99.90
28193;DHT22;15473;50.840;3.396;2023-02-01T13:27:53;17.10;99.90
28193;DHT22;15473;50.840;3.396;2023-02-01T13:30:45;17.50;99.90
28193;DHT22;15473;50.840;3.396;2023-02-01T13:42:21;18.60;99.90
28193;DHT22;15473;50.840;3.396;2023-02-01T13:45:15;18.60;99.90
28193;DHT22;15473;50.840;3.396;2023-02-01T13:48:14;18.70;99.90
28193;DHT22;15473;50.840;3.396;2023-02-01T13:51:02;18.70;99.90
28193;DHT22;15473;50.840;3.396;2023-02-01T13:53:54;18.40;99.90
28193;DHT22;15473;50.840;3.396;2023-02-01T13:56:44;18.00;99.90
28193;DHT22;15473;50.840;3.396;2023-02-01T14:08:20;17.20;99.90
28193;DHT22;15473;50.840;3.396;2023-02-01T14:11:01;17.10;99.90
28193;DHT22;15473;50.840;3.396;2023-02-01T14:13:47;16.90;99.90
28193;DHT22;15473;50.840;3.396;2023-02-01T14:16:37;16.70;99.90
28193;DHT22;15473;50.840;3.396;2023-02-01T14:19:32;16.50;99.90
28193;DHT22;15473;50.840;3.396;2023-02-01T14:25:19;16.10;99.90
28193;DHT22;15473;50.840;3.396;2023-02-01T14:28:10;16.00;99.90
28193;DHT22;15473;50.840;3.396;2023-02-01T14:30:53;15.80;99.90
28193;DHT22;15473;50.840;3.396;2023-02-01T14:33:53;15.50;99.90
28193;DHT22;15473;50.840;3.396;2023-02-01T14:36:42;15.40;99.90
28193;DHT22;15473;50.840;3.396;2023-02-01T14:39:35;15.10;99.90
28193;DHT22;15473;50.840;3.396;2023-02-01T14:42:38;14.80;99.90
28193;DHT22;15473;50.840;3.396;2023-02-01T14:51:08;14.30;99.90
28193;DHT22;15473;50.840;3.396;2023-02-01T14:53:57;14.20;99.90
28193;DHT22;15473;50.840;3.396;2023-02-01T14:56:44;14.20;99.90
28193;DHT22;15473;50.840;3.396;2023-02-01T14:59:52;14.10;99.90
28193;DHT22;15473;50.840;3.396;2023-02-01T15:02:37;13.90;99.90
28193;DHT22;15473;50.840;3.396;2023-02-01T15:05:29;13.80;99.90
28193;DHT22;15473;50.840;3.396;2023-02-01T15:08:27;13.60;99.90
28193;DHT22;15473;50.840;3.396;2023-02-01T15:11:18;13.40;99.90
28193;DHT22;15473;50.840;3.396;2023-02-01T15:14:12;13.20;99.90
28193;DHT22;15473;50.840;3.396;2023-02-01T15:16:56;12.90;99.90
28193;DHT22;15473;50.840;3.396;2023-02-01T15:19:55;12.70;99.90
28193;DHT22;15473;50.840;3.396;2023-02-01T15:23:01;12.50;99.90
28193;DHT22;15473;50.840;3.396;2023-02-01T15:26:01;12.30;99.90
28193;DHT22;15473;50.840;3.396;2023-02-01T15:28:47;12.10;99.90
28193;DHT22;15473;50.840;3.396;2023-02-01T15:31:37;12.10;99.90
28193;DHT22;15473;50.840;3.396;2023-02-01T15:34:49;12.00;99.90
28193;DHT22;15473;50.840;3.396;2023-02-01T15:37:27;11.90;99.90
28193;DHT22;15473;50.840;3.396;2023-02-01T15:43:19;11.60;99.90
28193;DHT22;15473;50.840;3.396;2023-02-01T15:46:07;11.60;99.90
28193;DHT22;15473;50.840;3.396;2023-02-01T15:49:01;11.50;99.90
28193;DHT22;15473;50.840;3.396;2023-02-01T15:51:47;11.30;99.90
28193;DHT22;15473;50.840;3.396;2023-02-01T15:54:46;11.30;99.90
28193;DHT22;15473;50.840;3.396;2023-02-01T15:57:26;11.20;99.90
28193;DHT22;15473;50.840;3.396;2023-02-01T16:00:17;11.10;99.90
28193;DHT22;15473;50.840;3.396;2023-02-01T16:02:59;11.00;99.90
28193;DHT22;15473;50.840;3.396;2023-02-01T16:05:45;10.90;99.90
28193;DHT22;15473;50.840;3.396;2023-02-01T16:08:31;10.70;99.90
28193;DHT22;15473;50.840;3.396;2023-02-01T16:11:29;10.60;99.90
28193;DHT22;15473;50.840;3.396;2023-02-01T16:14:19;10.50;99.90
28193;DHT22;15473;50.840;3.396;2023-02-01T16:17:08;10.30;99.90
28193;DHT22;15473;50.840;3.396;2023-02-01T16:19:54;10.20;99.90
28193;DHT22;15473;50.840;3.396;2023-02-01T16:22:40;10.10;99.90
28193;DHT22;15473;50.840;3.396;2023-02-01T16:25:32;10.00;99.90
28193;DHT22;15473;50.840;3.396;2023-02-01T16:28:17;9.90;99.90
28193;DHT22;15473;50.840;3.396;2023-02-01T16:31:03;9.80;99.90
28193;DHT22;15473;50.840;3.396;2023-02-01T16:33:51;9.60;99.90
28193;DHT22;15473;50.840;3.396;2023-02-01T16:36:36;9.50;99.90
28193;DHT22;15473;50.840;3.396;2023-02-01T16:39:22;9.40;99.90
28193;DHT22;15473;50.840;3.396;2023-02-01T16:42:14;9.30;99.90
28193;DHT22;15473;50.840;3.396;2023-02-01T16:45:02;9.20;99.90
28193;DHT22;15473;50.840;3.396;2023-02-01T16:47:52;9.10;99.90
28193;DHT22;15473;50.840;3.396;2023-02-01T16:50:39;9.00;99.90
28193;DHT22;15473;50.840;3.396;2023-02-01T16:53:25;9.00;99.90
28193;DHT22;15473;50.840;3.396;2023-02-01T16:56:14;8.90;99.90
28193;DHT22;15473;50.840;3.396;2023-02-01T16:59:01;8.80;99.90
28193;DHT22;15473;50.840;3.396;2023-02-01T17:01:46;8.80;99.90
28193;DHT22;15473;50.840;3.396;2023-02-01T17:04:34;8.70;99.90
28193;DHT22;15473;50.840;3.396;2023-02-01T17:07:20;8.70;99.90
28193;DHT22;15473;50.840;3.396;2023-02-01T17:10:08;8.60;99.90
28193;DHT22;15473;50.840;3.396;2023-02-01T17:12:53;8.60;99.90
28193;DHT22;15473;50.840;3.396;2023-02-01T17:15:45;8.60;99.90
28193;DHT22;15473;50.840;3.396;2023-02-01T17:18:30;8.50;99.90
28193;DHT22;15473;50.840;3.396;2023-02-01T17:21:24;8.50;99.90
28193;DHT22;15473;50.840;3.396;2023-02-01T17:24:14;8.50;99.90
28193;DHT22;15473;50.840;3.396;2023-02-01T17:27:00;8.50;99.90
28193;DHT22;15473;50.840;3.396;2023-02-01T17:29:54;8.50;99.90
28193;DHT22;15473;50.840;3.396;2023-02-01T17:32:42;8.50;99.90
28193;DHT22;15473;50.840;3.396;2023-02-01T17:35:35;8.40;99.90
28193;DHT22;15473;50.840;3.396;2023-02-01T17:38:20;8.40;99.90
28193;DHT22;15473;50.840;3.396;2023-02-01T17:41:08;8.30;99.90
28193;DHT22;15473;50.840;3.396;2023-02-01T17:43:53;8.30;99.90
28193;DHT22;15473;50.840;3.396;2023-02-01T17:46:45;8.30;99.90
28193;DHT22;15473;50.840;3.396;2023-02-01T17:49:33;8.20;99.90
28193;DHT22;15473;50.840;3.396;2023-02-01T17:52:26;8.20;99.90
28193;DHT22;15473;50.840;3.396;2023-02-01T17:55:21;8.20;99.90
28193;DHT22;15473;50.840;3.396;2023-02-01T17:58:14;8.20;99.90
28193;DHT22;15473;50.840;3.396;2023-02-01T18:01:01;8.10;99.90
28193;DHT22;15473;50.840;3.396;2023-02-01T18:04:00;8.10;99.90
28193;DHT22;15473;50.840;3.396;2023-02-01T18:06:53;8.10;99.90
28193;DHT22;15473;50.840;3.396;2023-02-01T18:09:42;8.10;99.90
28193;DHT22;15473;50.840;3.396;2023-02-01T18:12:34;8.10;99.90
28193;DHT22;15473;50.840;3.396;2023-02-01T18:15:24;8.10;99.90
28193;DHT22;15473;50.840;3.396;2023-02-01T18:18:10;8.10;99.90
28193;DHT22;15473;50.840;3.396;2023-02-01T18:20:58;8.10;99.90
28193;DHT22;15473;50.840;3.396;2023-02-01T18:23:44;8.10;99.90
28193;DHT22;15473;50.840;3.396;2023-02-01T18:26:36;8.10;99.90
28193;DHT22;15473;50.840;3.396;2023-02-01T18:29:22;8.10;99.90
28193;DHT22;15473;50.840;3.396;2023-02-01T18:32:08;8.10;99.90
28193;DHT22;15473;50.840;3.396;2023-02-01T18:34:58;8.10;99.90
28193;DHT22;15473;50.840;3.396;2023-02-01T18:37:49;8.20;99.90
28193;DHT22;15473;50.840;3.396;2023-02-01T18:40:49;8.10;99.90
28193;DHT22;15473;50.840;3.396;2023-02-01T18:43:35;8.10;99.90
28193;DHT22;15473;50.840;3.396;2023-02-01T18:46:23;8.10;99.90
28193;DHT22;15473;50.840;3.396;2023-02-01T18:49:09;8.10;99.90
28193;DHT22;15473;50.840;3.396;2023-02-01T18:52:00;8.10;99.90
28193;DHT22;15473;50.840;3.396;2023-02-01T18:54:53;8.10;99.90
28193;DHT22;15473;50.840;3.396;2023-02-01T18:57:39;8.10;99.90
28193;DHT22;15473;50.840;3.396;2023-02-01T19:00:26;8.10;99.90
28193;DHT22;15473;50.840;3.396;2023-02-01T19:03:13;8.10;99.90
28193;DHT22;15473;50.840;3.396;2023-02-01T19:05:59;8.10;99.90
28193;DHT22;15473;50.840;3.396;2023-02-01T19:08:46;8.10;99.90
28193;DHT22;15473;50.840;3.396;2023-02-01T19:11:39;8.00;99.90
28193;DHT22;15473;50.840;3.396;2023-02-01T19:14:25;8.00;99.90
28193;DHT22;15473;50.840;3.396;2023-02-01T19:17:11;8.00;99.90
28193;DHT22;15473;50.840;3.396;2023-02-01T19:19:57;8.00;99.90
28193;DHT22;15473;50.840;3.396;2023-02-01T19:22:49;8.00;99.90
28193;DHT22;15473;50.840;3.396;2023-02-01T19:25:37;7.90;99.90
28193;DHT22;15473;50.840;3.396;2023-02-01T19:28:23;7.90;99.90
28193;DHT22;15473;50.840;3.396;2023-02-01T19:31:10;8.00;99.90
28193;DHT22;15473;50.840;3.396;2023-02-01T19:33:55;7.90;99.90
28193;DHT22;15473;50.840;3.396;2023-02-01T19:36:41;8.00;99.90
28193;DHT22;15473;50.840;3.396;2023-02-01T19:39:33;7.90;99.90
28193;DHT22;15473;50.840;3.396;2023-02-01T19:42:21;8.00;99.90
28193;DHT22;15473;50.840;3.396;2023-02-01T19:45:14;7.90;99.90